sensor_id;sensor_type;location;lat;lon;timestamp;pressure;altitude;pressure_sealevel;temperature;humidity
43364;BME280;40636;52.424;-1.948;2023-05-23T00:01:58;101013.81;;;11.65;100.00
43364;BME280;40636;52.424;-1.948;2023-05-23T00:04:25;101012.16;;;11.64;100.00
43364;BME280;40636;52.424;-1.948;2023-05-23T00:06:53;101011.53;;;11.62;100.00
43364;BME280;40636;52.424;-1.948;2023-05-23T00:09:20;101008.88;;;11.56;100.00
43364;BME280;40636;52.424;-1.948;2023-05-23T00:11:46;101009.56;;;11.51;100.00
43364;BME280;40636;52.424;-1.948;2023-05-23T00:14:14;101012.91;;;11.53;100.00
43364;BME280;40636;52.424;-1.948;2023-05-23T00:16:41;101017.38;;;11.54;100.00
43364;BME280;40636;52.424;-1.948;2023-05-23T00:19:11;101021.16;;;11.53;100.00
43364;BME280;40636;52.424;-1.948;2023-05-23T00:21:41;101017.13;;;11.56;100.00
43364;BME280;40636;52.424;-1.948;2023-05-23T00:24:14;101028.97;;;11.56;100.00
43364;BME280;40636;52.424;-1.948;2023-05-23T00:26:45;101015.06;;;11.51;100.00
43364;BME280;40636;52.424;-1.948;2023-05-23T00:29:13;101026.38;;;11.43;100.00
43364;BME280;40636;52.424;-1.948;2023-05-23T00:31:44;101027.44;;;11.42;100.00
43364;BME280;40636;52.424;-1.948;2023-05-23T00:34:13;101019.44;;;11.40;100.00
43364;BME280;40636;52.424;-1.948;2023-05-23T00:36:40;101018.75;;;11.27;100.00
43364;BME280;40636;52.424;-1.948;2023-05-23T00:39:10;101018.22;;;11.18;100.00
43364;BME280;40636;52.424;-1.948;2023-05-23T00:41:48;101020.81;;;11.13;100.00
43364;BME280;40636;52.424;-1.948;2023-05-23T00:44:17;101025.91;;;11.09;100.00
43364;BME280;40636;52.424;-1.948;2023-05-23T00:46:49;101016.69;;;11.04;100.00
43364;BME280;40636;52.424;-1.948;2023-05-23T00:49:16;101018.19;;;11.00;100.00
43364;BME280;40636;52.424;-1.948;2023-05-23T00:51:46;101027.13;;;10.95;100.00
43364;BME280;40636;52.424;-1.948;2023-05-23T00:54:17;101029.69;;;10.90;100.00
43364;BME280;40636;52.424;-1.948;2023-05-23T00:56:46;101034.13;;;10.91;100.00
43364;BME280;40636;52.424;-1.948;2023-05-23T00:59:14;101032.91;;;10.87;100.00
43364;BME280;40636;52.424;-1.948;2023-05-23T01:01:42;101028.47;;;10.86;100.00
43364;BME280;40636;52.424;-1.948;2023-05-23T01:04:13;101026.78;;;10.85;100.00
43364;BME280;40636;52.424;-1.948;2023-05-23T01:06:42;101028.13;;;10.76;100.00
43364;BME280;40636;52.424;-1.948;2023-05-23T01:09:14;101020.13;;;10.74;100.00
43364;BME280;40636;52.424;-1.948;2023-05-23T01:14:42;101019.41;;;10.60;100.00
43364;BME280;40636;52.424;-1.948;2023-05-23T01:20:12;101023.16;;;10.41;100.00
43364;BME280;40636;52.424;-1.948;2023-05-23T01:25:30;101026.19;;;10.33;100.00
43364;BME280;40636;52.424;-1.948;2023-05-23T01:28:01;101025.34;;;10.32;100.00
43364;BME280;40636;52.424;-1.948;2023-05-23T01:30:31;101028.09;;;10.32;100.00
43364;BME280;40636;52.424;-1.948;2023-05-23T01:32:58;101027.91;;;10.27;100.00
43364;BME280;40636;52.424;-1.948;2023-05-23T01:35:27;101027.44;;;10.30;100.00
43364;BME280;40636;52.424;-1.948;2023-05-23T01:37:54;101024.34;;;10.27;100.00
43364;BME280;40636;52.424;-1.948;2023-05-23T01:40:25;101036.34;;;10.26;100.00
43364;BME280;40636;52.424;-1.948;2023-05-23T01:42:53;101030.22;;;10.24;100.00
43364;BME280;40636;52.424;-1.948;2023-05-23T01:45:25;101039.53;;;10.23;100.00
43364;BME280;40636;52.424;-1.948;2023-05-23T01:47:52;101030.66;;;10.21;100.00
43364;BME280;40636;52.424;-1.948;2023-05-23T01:50:19;101030.25;;;10.17;100.00
43364;BME280;40636;52.424;-1.948;2023-05-23T01:52:48;101043.13;;;10.16;100.00
43364;BME280;40636;52.424;-1.948;2023-05-23T01:55:16;101035.38;;;10.13;100.00
43364;BME280;40636;52.424;-1.948;2023-05-23T01:57:54;101030.13;;;10.05;100.00
43364;BME280;40636;52.424;-1.948;2023-05-23T02:00:21;101040.69;;;10.08;100.00
43364;BME280;40636;52.424;-1.948;2023-05-23T02:02:48;101038.38;;;10.05;100.00
43364;BME280;40636;52.424;-1.948;2023-05-23T02:05:15;101035.22;;;10.02;100.00
43364;BME280;40636;52.424;-1.948;2023-05-23T02:07:42;101030.38;;;10.04;100.00
43364;BME280;40636;52.424;-1.948;2023-05-23T02:10:09;101039.03;;;10.01;100.00
43364;BME280;40636;52.424;-1.948;2023-05-23T02:12:36;101030.16;;;9.99;100.00
43364;BME280;40636;52.424;-1.948;2023-05-23T02:15:03;101032.72;;;9.94;100.00
43364;BME280;40636;52.424;-1.948;2023-05-23T02:17:30;101033.38;;;9.89;100.00
43364;BME280;40636;52.424;-1.948;2023-05-23T02:19:57;101028.78;;;9.83;100.00
43364;BME280;40636;52.424;-1.948;2023-05-23T02:22:24;101033.22;;;9.84;100.00
43364;BME280;40636;52.424;-1.948;2023-05-23T02:24:51;101022.50;;;9.76;100.00
43364;BME280;40636;52.424;-1.948;2023-05-23T02:27:18;101031.56;;;9.76;100.00
43364;BME280;40636;52.424;-1.948;2023-05-23T02:29:45;101030.94;;;9.74;100.00
43364;BME280;40636;52.424;-1.948;2023-05-23T02:32:12;101031.59;;;9.70;100.00
43364;BME280;40636;52.424;-1.948;2023-05-23T02:34:39;101022.16;;;9.59;100.00
43364;BME280;40636;52.424;-1.948;2023-05-23T02:37:06;101024.50;;;9.55;100.00
43364;BME280;40636;52.424;-1.948;2023-05-23T02:39:35;101028.53;;;9.46;100.00
43364;BME280;40636;52.424;-1.948;2023-05-23T02:42:02;101028.13;;;9.43;100.00
43364;BME280;40636;52.424;-1.948;2023-05-23T02:44:30;101034.25;;;9.38;100.00
43364;BME280;40636;52.424;-1.948;2023-05-23T02:46:57;101029.84;;;9.37;100.00
43364;BME280;40636;52.424;-1.948;2023-05-23T02:49:24;101039.53;;;9.33;100.00
43364;BME280;40636;52.424;-1.948;2023-05-23T02:51:51;101033.66;;;9.29;100.00
43364;BME280;40636;52.424;-1.948;2023-05-23T02:54:18;101039.16;;;9.23;100.00
43364;BME280;40636;52.424;-1.948;2023-05-23T02:56:45;101044.63;;;9.16;100.00
43364;BME280;40636;52.424;-1.948;2023-05-23T02:59:12;101041.06;;;9.15;100.00
43364;BME280;40636;52.424;-1.948;2023-05-23T03:01:39;101040.88;;;9.10;100.00
43364;BME280;40636;52.424;-1.948;2023-05-23T03:04:06;101036.88;;;9.06;100.00
43364;BME280;40636;52.424;-1.948;2023-05-23T03:06:33;101043.00;;;9.08;100.00
43364;BME280;40636;52.424;-1.948;2023-05-23T03:09:02;101038.13;;;9.10;100.00
43364;BME280;40636;52.424;-1.948;2023-05-23T03:11:29;101041.09;;;9.09;100.00
43364;BME280;40636;52.424;-1.948;2023-05-23T03:13:56;101044.25;;;9.06;100.00
43364;BME280;40636;52.424;-1.948;2023-05-23T03:16:23;101046.75;;;9.07;100.00
43364;BME280;40636;52.424;-1.948;2023-05-23T03:18:50;101045.50;;;9.10;100.00
43364;BME280;40636;52.424;-1.948;2023-05-23T03:21:17;101054.34;;;9.12;100.00
43364;BME280;40636;52.424;-1.948;2023-05-23T03:23:44;101057.91;;;9.12;100.00
43364;BME280;40636;52.424;-1.948;2023-05-23T03:26:10;101050.75;;;9.11;100.00
43364;BME280;40636;52.424;-1.948;2023-05-23T03:28:37;101051.41;;;9.13;100.00
43364;BME280;40636;52.424;-1.948;2023-05-23T03:31:04;101050.97;;;9.17;100.00
43364;BME280;40636;52.424;-1.948;2023-05-23T03:33:31;101051.56;;;9.32;100.00
43364;BME280;40636;52.424;-1.948;2023-05-23T03:35:58;101050.47;;;9.46;100.00
43364;BME280;40636;52.424;-1.948;2023-05-23T03:38:25;101055.50;;;9.49;100.00
43364;BME280;40636;52.424;-1.948;2023-05-23T03:40:52;101054.88;;;9.47;100.00
43364;BME280;40636;52.424;-1.948;2023-05-23T03:43:19;101056.13;;;9.51;100.00
43364;BME280;40636;52.424;-1.948;2023-05-23T03:45:46;101059.75;;;9.45;100.00
43364;BME280;40636;52.424;-1.948;2023-05-23T03:48:13;101053.00;;;9.41;100.00
43364;BME280;40636;52.424;-1.948;2023-05-23T03:50:40;101058.03;;;9.44;100.00
43364;BME280;40636;52.424;-1.948;2023-05-23T03:53:06;101062.69;;;9.50;100.00
43364;BME280;40636;52.424;-1.948;2023-05-23T03:55:33;101058.00;;;9.57;100.00
43364;BME280;40636;52.424;-1.948;2023-05-23T03:58:00;101068.50;;;9.67;100.00
43364;BME280;40636;52.424;-1.948;2023-05-23T04:00:27;101070.56;;;9.78;100.00
43364;BME280;40636;52.424;-1.948;2023-05-23T04:02:54;101070.75;;;9.83;100.00
43364;BME280;40636;52.424;-1.948;2023-05-23T04:05:21;101065.88;;;9.85;100.00
43364;BME280;40636;52.424;-1.948;2023-05-23T04:07:48;101067.53;;;9.93;100.00
43364;BME280;40636;52.424;-1.948;2023-05-23T04:10:17;101066.69;;;9.99;100.00
43364;BME280;40636;52.424;-1.948;2023-05-23T04:12:44;101068.75;;;10.04;100.00
43364;BME280;40636;52.424;-1.948;2023-05-23T04:15:11;101064.50;;;10.08;100.00
43364;BME280;40636;52.424;-1.948;2023-05-23T04:17:38;101060.66;;;10.15;100.00
43364;BME280;40636;52.424;-1.948;2023-05-23T04:20:06;101063.56;;;10.21;100.00
43364;BME280;40636;52.424;-1.948;2023-05-23T04:22:35;101066.16;;;10.15;100.00
43364;BME280;40636;52.424;-1.948;2023-05-23T04:25:02;101061.91;;;10.20;100.00
43364;BME280;40636;52.424;-1.948;2023-05-23T04:27:29;101063.56;;;10.21;100.00
43364;BME280;40636;52.424;-1.948;2023-05-23T04:29:56;101067.78;;;10.23;100.00
43364;BME280;40636;52.424;-1.948;2023-05-23T04:32:23;101064.00;;;10.24;100.00
43364;BME280;40636;52.424;-1.948;2023-05-23T04:34:51;101062.09;;;10.25;100.00
43364;BME280;40636;52.424;-1.948;2023-05-23T04:37:18;101059.38;;;10.25;100.00
43364;BME280;40636;52.424;-1.948;2023-05-23T04:39:51;101066.53;;;10.26;100.00
43364;BME280;40636;52.424;-1.948;2023-05-23T04:42:18;101074.72;;;10.32;100.00
43364;BME280;40636;52.424;-1.948;2023-05-23T04:44:50;101066.03;;;10.35;100.00
43364;BME280;40636;52.424;-1.948;2023-05-23T04:47:18;101070.47;;;10.36;100.00
43364;BME280;40636;52.424;-1.948;2023-05-23T04:49:45;101077.47;;;10.32;100.00
43364;BME280;40636;52.424;-1.948;2023-05-23T04:52:11;101068.56;;;10.37;100.00
43364;BME280;40636;52.424;-1.948;2023-05-23T04:54:38;101079.50;;;10.44;100.00
43364;BME280;40636;52.424;-1.948;2023-05-23T04:57:11;101074.00;;;10.44;100.00
43364;BME280;40636;52.424;-1.948;2023-05-23T04:59:37;101077.16;;;10.47;100.00
43364;BME280;40636;52.424;-1.948;2023-05-23T05:02:05;101077.16;;;10.47;100.00
43364;BME280;40636;52.424;-1.948;2023-05-23T05:04:32;101082.47;;;10.42;100.00
43364;BME280;40636;52.424;-1.948;2023-05-23T05:06:59;101077.31;;;10.52;100.00
43364;BME280;40636;52.424;-1.948;2023-05-23T05:09:26;101069.88;;;10.59;100.00
43364;BME280;40636;52.424;-1.948;2023-05-23T05:11:52;101069.66;;;10.61;100.00
43364;BME280;40636;52.424;-1.948;2023-05-23T05:14:19;101067.06;;;10.66;100.00
43364;BME280;40636;52.424;-1.948;2023-05-23T05:16:46;101076.16;;;10.66;100.00
43364;BME280;40636;52.424;-1.948;2023-05-23T05:19:14;101075.66;;;10.76;100.00
43364;BME280;40636;52.424;-1.948;2023-05-23T05:21:41;101073.47;;;10.85;100.00
43364;BME280;40636;52.424;-1.948;2023-05-23T05:24:08;101077.44;;;10.89;100.00
43364;BME280;40636;52.424;-1.948;2023-05-23T05:26:35;101078.28;;;10.89;100.00
43364;BME280;40636;52.424;-1.948;2023-05-23T05:29:02;101080.53;;;10.99;100.00
43364;BME280;40636;52.424;-1.948;2023-05-23T05:31:29;101081.13;;;11.01;100.00
43364;BME280;40636;52.424;-1.948;2023-05-23T05:33:56;101083.59;;;11.09;100.00
43364;BME280;40636;52.424;-1.948;2023-05-23T05:36:23;101083.75;;;11.14;100.00
43364;BME280;40636;52.424;-1.948;2023-05-23T05:38:50;101079.09;;;11.15;100.00
43364;BME280;40636;52.424;-1.948;2023-05-23T05:41:17;101084.53;;;11.22;100.00
43364;BME280;40636;52.424;-1.948;2023-05-23T05:43:44;101081.72;;;11.28;100.00
43364;BME280;40636;52.424;-1.948;2023-05-23T05:46:11;101087.81;;;11.30;100.00
43364;BME280;40636;52.424;-1.948;2023-05-23T05:48:37;101084.56;;;11.40;100.00
43364;BME280;40636;52.424;-1.948;2023-05-23T05:51:04;101081.97;;;11.45;100.00
43364;BME280;40636;52.424;-1.948;2023-05-23T05:53:31;101080.59;;;11.54;100.00
43364;BME280;40636;52.424;-1.948;2023-05-23T05:55:58;101087.69;;;11.62;100.00
43364;BME280;40636;52.424;-1.948;2023-05-23T05:58:26;101091.50;;;11.61;100.00
43364;BME280;40636;52.424;-1.948;2023-05-23T06:00:53;101083.41;;;11.66;100.00
43364;BME280;40636;52.424;-1.948;2023-05-23T06:03:20;101095.16;;;11.73;100.00
43364;BME280;40636;52.424;-1.948;2023-05-23T06:05:47;101087.75;;;11.74;100.00
43364;BME280;40636;52.424;-1.948;2023-05-23T06:08:14;101095.91;;;11.80;100.00
43364;BME280;40636;52.424;-1.948;2023-05-23T06:10:41;101094.66;;;11.83;100.00
43364;BME280;40636;52.424;-1.948;2023-05-23T06:13:08;101090.97;;;11.89;100.00
43364;BME280;40636;52.424;-1.948;2023-05-23T06:15:35;101101.84;;;11.84;100.00
43364;BME280;40636;52.424;-1.948;2023-05-23T06:18:02;101095.19;;;11.91;100.00
43364;BME280;40636;52.424;-1.948;2023-05-23T06:20:29;101101.84;;;11.84;100.00
43364;BME280;40636;52.424;-1.948;2023-05-23T06:22:55;101100.16;;;11.83;100.00
43364;BME280;40636;52.424;-1.948;2023-05-23T06:25:22;101097.25;;;11.96;100.00
43364;BME280;40636;52.424;-1.948;2023-05-23T06:27:49;101096.09;;;12.04;100.00
43364;BME280;40636;52.424;-1.948;2023-05-23T06:30:16;101095.78;;;11.93;100.00
43364;BME280;40636;52.424;-1.948;2023-05-23T06:32:43;101087.97;;;12.09;100.00
43364;BME280;40636;52.424;-1.948;2023-05-23T06:35:10;101091.69;;;12.14;100.00
43364;BME280;40636;52.424;-1.948;2023-05-23T06:37:36;101085.44;;;12.07;100.00
43364;BME280;40636;52.424;-1.948;2023-05-23T06:40:06;101090.88;;;12.14;100.00
43364;BME280;40636;52.424;-1.948;2023-05-23T06:42:32;101083.00;;;12.29;100.00
43364;BME280;40636;52.424;-1.948;2023-05-23T06:44:59;101090.56;;;12.34;100.00
43364;BME280;40636;52.424;-1.948;2023-05-23T06:47:26;101077.78;;;12.39;100.00
43364;BME280;40636;52.424;-1.948;2023-05-23T06:49:53;101068.47;;;12.52;100.00
43364;BME280;40636;52.424;-1.948;2023-05-23T06:52:20;101070.38;;;12.52;100.00
43364;BME280;40636;52.424;-1.948;2023-05-23T06:54:46;101066.72;;;12.69;100.00
43364;BME280;40636;52.424;-1.948;2023-05-23T06:57:13;101066.03;;;12.86;100.00
43364;BME280;40636;52.424;-1.948;2023-05-23T06:59:40;101058.59;;;12.98;100.00
43364;BME280;40636;52.424;-1.948;2023-05-23T07:02:07;101059.31;;;13.05;100.00
43364;BME280;40636;52.424;-1.948;2023-05-23T07:04:34;101070.50;;;13.22;100.00
43364;BME280;40636;52.424;-1.948;2023-05-23T07:07:01;101076.72;;;13.17;100.00
43364;BME280;40636;52.424;-1.948;2023-05-23T07:09:28;101079.09;;;13.26;100.00
43364;BME280;40636;52.424;-1.948;2023-05-23T07:11:54;101080.03;;;13.19;100.00
43364;BME280;40636;52.424;-1.948;2023-05-23T07:14:21;101080.03;;;13.19;100.00
43364;BME280;40636;52.424;-1.948;2023-05-23T07:16:48;101071.66;;;13.26;100.00
43364;BME280;40636;52.424;-1.948;2023-05-23T07:19:15;101070.94;;;13.42;100.00
43364;BME280;40636;52.424;-1.948;2023-05-23T07:21:42;101070.69;;;13.44;100.00
43364;BME280;40636;52.424;-1.948;2023-05-23T07:24:08;101073.44;;;13.56;100.00
43364;BME280;40636;52.424;-1.948;2023-05-23T07:26:35;101067.78;;;13.62;100.00
43364;BME280;40636;52.424;-1.948;2023-05-23T07:29:05;101069.84;;;13.55;100.00
43364;BME280;40636;52.424;-1.948;2023-05-23T07:31:32;101071.72;;;13.66;100.00
43364;BME280;40636;52.424;-1.948;2023-05-23T07:33:59;101075.94;;;13.69;100.00
43364;BME280;40636;52.424;-1.948;2023-05-23T07:36:26;101069.06;;;13.71;100.00
43364;BME280;40636;52.424;-1.948;2023-05-23T07:38:55;101069.88;;;13.84;100.00
43364;BME280;40636;52.424;-1.948;2023-05-23T07:41:26;101081.19;;;13.82;100.00
43364;BME280;40636;52.424;-1.948;2023-05-23T07:43:53;101076.84;;;13.86;100.00
43364;BME280;40636;52.424;-1.948;2023-05-23T07:46:20;101080.72;;;13.74;100.00
43364;BME280;40636;52.424;-1.948;2023-05-23T07:48:48;101085.03;;;13.81;100.00
43364;BME280;40636;52.424;-1.948;2023-05-23T07:55:48;101078.69;;;13.81;100.00
43364;BME280;40636;52.424;-1.948;2023-05-23T07:58:28;101074.78;;;13.93;100.00
43364;BME280;40636;52.424;-1.948;2023-05-23T08:17:41;101086.09;;;14.66;100.00
43364;BME280;40636;52.424;-1.948;2023-05-23T08:20:15;101083.34;;;14.66;100.00
43364;BME280;40636;52.424;-1.948;2023-05-23T08:40:05;101105.97;;;15.13;100.00
43364;BME280;40636;52.424;-1.948;2023-05-23T08:42:39;101111.16;;;15.27;100.00
43364;BME280;40636;52.424;-1.948;2023-05-23T08:45:09;101110.81;;;15.06;100.00
43364;BME280;40636;52.424;-1.948;2023-05-23T08:47:45;101116.44;;;15.11;100.00
43364;BME280;40636;52.424;-1.948;2023-05-23T08:50:16;101118.44;;;15.16;100.00
43364;BME280;40636;52.424;-1.948;2023-05-23T08:52:56;101117.75;;;15.26;100.00
43364;BME280;40636;52.424;-1.948;2023-05-23T08:55:25;101112.47;;;15.41;100.00
43364;BME280;40636;52.424;-1.948;2023-05-23T08:58:02;101116.91;;;15.42;100.00
43364;BME280;40636;52.424;-1.948;2023-05-23T09:00:30;101116.63;;;15.60;100.00
43364;BME280;40636;52.424;-1.948;2023-05-23T09:02:57;101111.00;;;15.55;100.00
43364;BME280;40636;52.424;-1.948;2023-05-23T09:05:25;101113.00;;;15.60;100.00
43364;BME280;40636;52.424;-1.948;2023-05-23T09:07:52;101111.59;;;15.57;100.00
43364;BME280;40636;52.424;-1.948;2023-05-23T09:10:20;101114.59;;;15.72;100.00
43364;BME280;40636;52.424;-1.948;2023-05-23T09:12:48;101101.66;;;15.78;100.00
43364;BME280;40636;52.424;-1.948;2023-05-23T09:15:15;101095.88;;;15.80;100.00
43364;BME280;40636;52.424;-1.948;2023-05-23T09:17:43;101103.28;;;15.74;100.00
43364;BME280;40636;52.424;-1.948;2023-05-23T09:20:13;101102.94;;;15.92;100.00
43364;BME280;40636;52.424;-1.948;2023-05-23T09:22:45;101102.50;;;16.01;100.00
43364;BME280;40636;52.424;-1.948;2023-05-23T09:25:13;101111.47;;;15.86;100.00
43364;BME280;40636;52.424;-1.948;2023-05-23T09:27:41;101097.03;;;15.84;100.00
43364;BME280;40636;52.424;-1.948;2023-05-23T09:30:13;101096.53;;;15.87;100.00
43364;BME280;40636;52.424;-1.948;2023-05-23T09:32:40;101097.22;;;15.77;100.00
43364;BME280;40636;52.424;-1.948;2023-05-23T09:35:09;101088.34;;;15.75;100.00
43364;BME280;40636;52.424;-1.948;2023-05-23T09:37:42;101099.09;;;15.71;100.00
43364;BME280;40636;52.424;-1.948;2023-05-23T09:40:12;101103.81;;;15.54;100.00
43364;BME280;40636;52.424;-1.948;2023-05-23T09:42:41;101101.28;;;15.69;100.00
43364;BME280;40636;52.424;-1.948;2023-05-23T09:45:11;101116.00;;;15.75;100.00
43364;BME280;40636;52.424;-1.948;2023-05-23T09:47:38;101114.53;;;15.67;100.00
43364;BME280;40636;52.424;-1.948;2023-05-23T09:50:05;101112.84;;;15.66;100.00
43364;BME280;40636;52.424;-1.948;2023-05-23T09:52:37;101116.34;;;15.79;100.00
43364;BME280;40636;52.424;-1.948;2023-05-23T09:55:05;101123.53;;;15.80;100.00
43364;BME280;40636;52.424;-1.948;2023-05-23T09:57:40;101122.53;;;15.86;100.00
43364;BME280;40636;52.424;-1.948;2023-05-23T10:00:09;101120.84;;;16.07;100.00
43364;BME280;40636;52.424;-1.948;2023-05-23T10:05:47;101123.09;;;16.10;100.00
43364;BME280;40636;52.424;-1.948;2023-05-23T10:08:26;101131.41;;;16.32;100.00
43364;BME280;40636;52.424;-1.948;2023-05-23T10:13:27;101123.66;;;16.34;96.09
43364;BME280;40636;52.424;-1.948;2023-05-23T10:16:00;101123.47;;;16.40;99.13
43364;BME280;40636;52.424;-1.948;2023-05-23T10:18:29;101119.91;;;16.45;97.77
43364;BME280;40636;52.424;-1.948;2023-05-23T10:21:06;101112.16;;;16.47;100.00
43364;BME280;40636;52.424;-1.948;2023-05-23T10:23:36;101110.06;;;16.59;100.00
43364;BME280;40636;52.424;-1.948;2023-05-23T10:26:03;101105.97;;;16.94;100.00
43364;BME280;40636;52.424;-1.948;2023-05-23T10:28:31;101110.41;;;16.90;96.58
43364;BME280;40636;52.424;-1.948;2023-05-23T10:31:01;101104.84;;;16.90;97.75
43364;BME280;40636;52.424;-1.948;2023-05-23T10:33:35;101103.38;;;16.82;100.00
43364;BME280;40636;52.424;-1.948;2023-05-23T10:36:15;101104.75;;;16.80;95.56
43364;BME280;40636;52.424;-1.948;2023-05-23T10:39:08;101097.91;;;16.92;94.88
43364;BME280;40636;52.424;-1.948;2023-05-23T10:41:43;101104.22;;;16.83;89.66
43364;BME280;40636;52.424;-1.948;2023-05-23T10:44:18;101099.50;;;16.83;90.45
43364;BME280;40636;52.424;-1.948;2023-05-23T10:46:54;101102.31;;;16.88;95.85
43364;BME280;40636;52.424;-1.948;2023-05-23T10:49:40;101100.59;;;17.14;94.95
43364;BME280;40636;52.424;-1.948;2023-05-23T10:52:08;101096.34;;;17.02;91.63
43364;BME280;40636;52.424;-1.948;2023-05-23T10:54:53;101095.03;;;17.14;98.71
43364;BME280;40636;52.424;-1.948;2023-05-23T10:57:24;101090.22;;;17.37;97.02
43364;BME280;40636;52.424;-1.948;2023-05-23T10:59:55;101090.22;;;17.42;97.25
43364;BME280;40636;52.424;-1.948;2023-05-23T11:02:27;101088.94;;;17.55;98.25
43364;BME280;40636;52.424;-1.948;2023-05-23T11:05:17;101084.84;;;17.72;97.67
43364;BME280;40636;52.424;-1.948;2023-05-23T11:07:44;101081.63;;;17.91;96.17
43364;BME280;40636;52.424;-1.948;2023-05-23T11:10:12;101079.16;;;17.99;93.77
43364;BME280;40636;52.424;-1.948;2023-05-23T11:12:41;101085.09;;;17.71;89.72
43364;BME280;40636;52.424;-1.948;2023-05-23T11:15:18;101087.31;;;17.64;92.15
43364;BME280;40636;52.424;-1.948;2023-05-23T11:17:56;101086.03;;;17.39;92.96
43364;BME280;40636;52.424;-1.948;2023-05-23T11:20:24;101078.16;;;17.68;94.14
43364;BME280;40636;52.424;-1.948;2023-05-23T11:25:51;101076.63;;;17.88;92.72
43364;BME280;40636;52.424;-1.948;2023-05-23T11:28:20;101081.03;;;17.84;88.62
43364;BME280;40636;52.424;-1.948;2023-05-23T11:30:48;101077.41;;;17.78;87.86
43364;BME280;40636;52.424;-1.948;2023-05-23T11:33:16;101081.06;;;17.94;90.40
43364;BME280;40636;52.424;-1.948;2023-05-23T11:35:47;101081.69;;;18.06;90.88
43364;BME280;40636;52.424;-1.948;2023-05-23T11:38:21;101078.34;;;17.99;97.52
43364;BME280;40636;52.424;-1.948;2023-05-23T11:40:50;101074.94;;;17.87;98.48
43364;BME280;40636;52.424;-1.948;2023-05-23T11:43:20;101071.03;;;17.78;98.79
43364;BME280;40636;52.424;-1.948;2023-05-23T11:45:50;101069.13;;;17.88;100.00
43364;BME280;40636;52.424;-1.948;2023-05-23T11:48:17;101072.22;;;18.02;94.40
43364;BME280;40636;52.424;-1.948;2023-05-23T11:50:48;101073.28;;;17.86;97.41
43364;BME280;40636;52.424;-1.948;2023-05-23T11:53:16;101070.00;;;18.04;100.00
43364;BME280;40636;52.424;-1.948;2023-05-23T11:56:01;101070.03;;;18.14;95.59
43364;BME280;40636;52.424;-1.948;2023-05-23T11:58:32;101077.25;;;18.05;95.53
43364;BME280;40636;52.424;-1.948;2023-05-23T12:01:06;101074.66;;;17.83;97.69
43364;BME280;40636;52.424;-1.948;2023-05-23T12:03:44;101063.94;;;18.12;99.66
43364;BME280;40636;52.424;-1.948;2023-05-23T12:06:17;101072.59;;;18.36;93.03
43364;BME280;40636;52.424;-1.948;2023-05-23T12:09:13;101062.56;;;18.25;94.12
43364;BME280;40636;52.424;-1.948;2023-05-23T12:11:48;101068.13;;;18.30;97.02
43364;BME280;40636;52.424;-1.948;2023-05-23T12:18:07;101074.81;;;18.39;93.75
43364;BME280;40636;52.424;-1.948;2023-05-23T12:20:48;101066.44;;;18.24;100.00
43364;BME280;40636;52.424;-1.948;2023-05-23T12:23:32;101066.75;;;18.33;100.00
43364;BME280;40636;52.424;-1.948;2023-05-23T12:26:11;101070.34;;;18.28;95.34
43364;BME280;40636;52.424;-1.948;2023-05-23T12:33:44;101068.38;;;18.18;97.30
43364;BME280;40636;52.424;-1.948;2023-05-23T12:37:22;101066.66;;;18.02;100.00
43364;BME280;40636;52.424;-1.948;2023-05-23T12:39:50;101068.13;;;18.30;100.00
43364;BME280;40636;52.424;-1.948;2023-05-23T12:42:17;101058.41;;;18.48;100.00
43364;BME280;40636;52.424;-1.948;2023-05-23T12:44:50;101064.84;;;18.54;99.65
43364;BME280;40636;52.424;-1.948;2023-05-23T12:47:17;101065.09;;;18.32;100.00
43364;BME280;40636;52.424;-1.948;2023-05-23T12:49:44;101062.84;;;18.23;100.00
43364;BME280;40636;52.424;-1.948;2023-05-23T12:52:12;101058.38;;;18.17;100.00
43364;BME280;40636;52.424;-1.948;2023-05-23T12:54:39;101066.75;;;18.33;99.68
43364;BME280;40636;52.424;-1.948;2023-05-23T12:57:06;101058.38;;;18.17;100.00
43364;BME280;40636;52.424;-1.948;2023-05-23T12:59:35;101059.13;;;17.87;97.06
43364;BME280;40636;52.424;-1.948;2023-05-23T13:02:02;101056.63;;;17.86;100.00
43364;BME280;40636;52.424;-1.948;2023-05-23T13:04:29;101056.03;;;17.79;100.00
43364;BME280;40636;52.424;-1.948;2023-05-23T13:06:58;101053.03;;;17.90;100.00
43364;BME280;40636;52.424;-1.948;2023-05-23T13:09:25;101049.19;;;18.07;100.00
43364;BME280;40636;52.424;-1.948;2023-05-23T13:11:51;101050.06;;;18.22;100.00
43364;BME280;40636;52.424;-1.948;2023-05-23T13:14:18;101051.72;;;18.18;100.00
43364;BME280;40636;52.424;-1.948;2023-05-23T13:16:45;101060.88;;;18.09;100.00
43364;BME280;40636;52.424;-1.948;2023-05-23T13:19:12;101053.34;;;18.04;100.00
43364;BME280;40636;52.424;-1.948;2023-05-23T13:21:39;101049.50;;;18.25;100.00
43364;BME280;40636;52.424;-1.948;2023-05-23T13:24:07;101042.28;;;18.35;100.00
43364;BME280;40636;52.424;-1.948;2023-05-23T13:26:34;101037.59;;;18.40;100.00
43364;BME280;40636;52.424;-1.948;2023-05-23T13:29:04;101033.97;;;18.40;100.00
43364;BME280;40636;52.424;-1.948;2023-05-23T13:31:43;101026.97;;;18.12;100.00
43364;BME280;40636;52.424;-1.948;2023-05-23T13:34:31;101040.00;;;18.06;98.88
43364;BME280;40636;52.424;-1.948;2023-05-23T13:37:19;101036.16;;;18.17;100.00
43364;BME280;40636;52.424;-1.948;2023-05-23T13:39:56;101038.72;;;18.44;100.00
43364;BME280;40636;52.424;-1.948;2023-05-23T13:42:23;101036.72;;;18.30;97.02
43364;BME280;40636;52.424;-1.948;2023-05-23T13:44:50;101025.59;;;18.35;100.00
43364;BME280;40636;52.424;-1.948;2023-05-23T13:47:17;101027.25;;;18.15;100.00
43364;BME280;40636;52.424;-1.948;2023-05-23T13:49:46;101021.69;;;18.25;100.00